Time;durP1;ratioP1;P1;durP2;ratioP2;P2;SDS_P1;SDS_P2;PMS_P1;PMS_P2;Temp;Humidity;BMP_temperature;BMP_pressure;BME280_temperature;BME280_humidity;BME280_pressure;Samples;Min_cycle;Max_cycle;Signal;HPM_P1;HPM_P2
2022/06/25 00:00:35;;;;;;;1.50;0.90;;;18.60;98.20;;;;;;5010692;28;20449;-80
2022/06/25 00:03:03;;;;;;;1.50;0.90;;;18.60;98.20;;;;;;5009891;28;20458;-80
2022/06/25 00:05:32;;;;;;;1.50;0.90;;;18.60;98.20;;;;;;5009631;28;20480;-81
2022/06/25 00:08:00;;;;;;;1.50;0.90;;;18.60;98.20;;;;;;5016845;28;20583;-82
2022/06/25 00:10:27;;;;;;;1.50;0.90;;;18.60;98.20;;;;;;5012883;28;20491;-80
2022/06/25 00:12:54;;;;;;;1.50;0.90;;;18.60;98.20;;;;;;5011242;28;20492;-81
2022/06/25 00:15:22;;;;;;;1.50;0.90;;;18.50;98.20;;;;;;5014291;28;20515;-80
2022/06/25 00:17:49;;;;;;;1.50;0.90;;;18.50;98.20;;;;;;5007456;28;20500;-81
2022/06/25 00:20:16;;;;;;;1.50;0.90;;;18.50;98.20;;;;;;5004041;28;20552;-80
2022/06/25 00:22:43;;;;;;;1.50;0.90;;;18.50;98.20;;;;;;5011411;28;20547;-80
2022/06/25 00:25:10;;;;;;;1.50;0.90;;;18.40;98.20;;;;;;5011614;28;20488;-80
2022/06/25 00:27:37;;;;;;;1.50;0.90;;;18.40;98.20;;;;;;5020656;28;20491;-80
2022/06/25 00:30:06;;;;;;;1.50;0.90;;;18.40;98.20;;;;;;5004480;28;20496;-80
2022/06/25 00:32:34;;;;;;;1.50;0.90;;;18.40;98.20;;;;;;5011493;28;20480;-80
2022/06/25 00:35:02;;;;;;;1.50;0.93;;;18.40;98.20;;;;;;5025182;28;20575;-80
2022/06/25 00:37:29;;;;;;;1.50;0.90;;;18.40;98.20;;;;;;5027836;28;20522;-81
2022/06/25 00:39:55;;;;;;;1.50;0.90;;;18.40;98.20;;;;;;5020778;28;20471;-81
2022/06/25 00:42:22;;;;;;;1.53;1.00;;;18.40;98.20;;;;;;5010573;28;20485;-81
2022/06/25 00:44:49;;;;;;;1.50;1.00;;;18.40;98.20;;;;;;5015858;28;20481;-81
2022/06/25 00:47:16;;;;;;;1.50;1.00;;;18.40;98.20;;;;;;5009760;28;20544;-81
2022/06/25 00:49:45;;;;;;;1.50;0.90;;;18.40;98.20;;;;;;5012632;28;20702;-81
2022/06/25 00:52:14;;;;;;;1.50;0.90;;;18.40;98.20;;;;;;5027765;28;20482;-81
2022/06/25 00:54:46;;;;;;;1.50;0.90;;;18.50;98.20;;;;;;5026770;28;20477;-81
2022/06/25 00:57:18;;;;;;;1.60;1.10;;;18.40;98.20;;;;;;5010152;28;20511;-80
2022/06/25 00:59:48;;;;;;;1.50;0.90;;;18.40;98.20;;;;;;5012707;28;20503;-80
2022/06/25 01:02:16;;;;;;;1.50;1.00;;;18.50;98.20;;;;;;5017166;28;20539;-80
2022/06/25 01:04:44;;;;;;;1.50;0.90;;;18.50;98.20;;;;;;5010912;28;20542;-80
2022/06/25 01:07:11;;;;;;;1.50;0.90;;;18.50;98.20;;;;;;5026069;28;20471;-80
2022/06/25 01:09:39;;;;;;;1.50;1.00;;;18.50;98.20;;;;;;5028605;28;20464;-80
2022/06/25 01:12:07;;;;;;;1.50;0.93;;;18.50;98.20;;;;;;5011337;28;20489;-81
2022/06/25 01:14:34;;;;;;;1.57;1.00;;;18.50;98.20;;;;;;5011644;28;20515;-81
2022/06/25 01:17:05;;;;;;;1.50;0.90;;;18.50;98.20;;;;;;5015824;28;20555;-80
2022/06/25 01:19:33;;;;;;;1.50;0.90;;;18.50;98.20;;;;;;5008261;28;20509;-80
2022/06/25 01:22:03;;;;;;;1.50;1.00;;;18.50;98.20;;;;;;5008297;28;20507;-81
2022/06/25 01:24:31;;;;;;;1.50;0.90;;;18.50;98.20;;;;;;5028798;28;20481;-80
2022/06/25 01:26:58;;;;;;;1.57;1.10;;;18.50;98.20;;;;;;5010467;28;20841;-80
2022/06/25 01:29:25;;;;;;;1.50;0.90;;;18.50;98.20;;;;;;5009893;28;20598;-81
2022/06/25 01:31:52;;;;;;;1.50;0.90;;;18.50;98.20;;;;;;5015866;28;20492;-80
2022/06/25 01:34:23;;;;;;;1.50;1.00;;;18.50;98.20;;;;;;5012769;28;20485;-81
2022/06/25 01:37:11;;;;;;;1.77;1.40;;;18.50;98.20;;;;;;5006249;28;20480;-79
2022/06/25 01:39:38;;;;;;;1.50;0.90;;;18.50;98.20;;;;;;5008072;28;20455;-79
2022/06/25 01:42:05;;;;;;;1.50;0.90;;;18.50;98.20;;;;;;5008772;28;20491;-79
2022/06/25 01:44:36;;;;;;;1.50;0.90;;;18.50;98.20;;;;;;5009917;28;20532;-81
2022/06/25 01:47:03;;;;;;;1.50;0.90;;;18.50;98.20;;;;;;5007256;28;20498;-80
2022/06/25 01:49:30;;;;;;;1.50;0.97;;;18.50;98.20;;;;;;5012591;28;20471;-80
2022/06/25 01:51:57;;;;;;;1.50;0.90;;;18.50;98.20;;;;;;4997632;28;20497;-80
2022/06/25 01:54:26;;;;;;;1.50;0.90;;;18.50;98.20;;;;;;5005705;28;20512;-80
2022/06/25 01:56:53;;;;;;;1.50;0.90;;;18.50;98.20;;;;;;5008291;28;20523;-80
2022/06/25 02:02:38;;;;;;;1.50;1.00;;;18.50;98.20;;;;;;5003408;28;20479;-79
2022/06/25 02:05:05;;;;;;;1.50;0.90;;;18.40;98.20;;;;;;5003070;28;20508;-80
2022/06/25 02:07:32;;;;;;;1.50;0.90;;;18.40;98.20;;;;;;5012209;28;20467;-80
2022/06/25 02:10:01;;;;;;;1.50;0.90;;;18.40;98.20;;;;;;5018159;28;20516;-79
2022/06/25 02:12:29;;;;;;;1.50;0.90;;;18.40;98.20;;;;;;5016954;28;20482;-80
2022/06/25 02:14:56;;;;;;;1.50;0.90;;;18.40;98.20;;;;;;5013508;28;20739;-80
2022/06/25 02:17:23;;;;;;;1.50;0.90;;;18.40;98.20;;;;;;5019124;28;20467;-80
2022/06/25 02:19:51;;;;;;;1.50;0.97;;;18.40;98.20;;;;;;5020724;28;20464;-80
2022/06/25 02:22:18;;;;;;;1.50;0.90;;;18.40;98.20;;;;;;5011589;28;20548;-80
2022/06/25 02:24:45;;;;;;;1.50;0.90;;;18.40;98.20;;;;;;5013433;28;20486;-80
2022/06/25 02:27:13;;;;;;;1.50;1.00;;;18.40;98.20;;;;;;5009419;28;20528;-81
2022/06/25 02:29:40;;;;;;;1.50;0.90;;;18.40;98.20;;;;;;5012041;28;20551;-80
2022/06/25 02:32:08;;;;;;;1.50;0.90;;;18.40;98.20;;;;;;5008787;28;20532;-79
2022/06/25 02:34:35;;;;;;;1.50;0.90;;;18.30;98.20;;;;;;5023281;28;20511;-80
2022/06/25 02:37:01;;;;;;;1.50;1.00;;;18.30;98.20;;;;;;5019973;28;20871;-81
2022/06/25 02:39:28;;;;;;;1.50;1.00;;;18.30;98.20;;;;;;5007533;28;20512;-80
2022/06/25 02:41:55;;;;;;;1.50;0.90;;;18.30;98.20;;;;;;5004461;28;20476;-79
2022/06/25 02:44:24;;;;;;;1.50;1.00;;;18.30;98.20;;;;;;5018087;28;20964;-80
2022/06/25 02:46:51;;;;;;;1.50;0.90;;;18.30;98.20;;;;;;5009857;28;20523;-79
2022/06/25 02:49:18;;;;;;;1.50;1.00;;;18.30;98.20;;;;;;5024244;28;20476;-80
2022/06/25 02:51:44;;;;;;;1.50;1.00;;;18.30;98.20;;;;;;5011506;28;20490;-80
2022/06/25 02:54:11;;;;;;;1.50;0.97;;;18.30;98.20;;;;;;5013652;28;20499;-80
2022/06/25 02:59:24;;;;;;;1.50;1.00;;;18.20;98.20;;;;;;5009211;28;20456;-81
2022/06/25 03:01:55;;;;;;;1.50;0.90;;;18.20;98.20;;;;;;4999283;28;20477;-80
2022/06/25 03:04:22;;;;;;;1.50;1.00;;;18.20;98.20;;;;;;5000831;28;20491;-80
2022/06/25 03:06:49;;;;;;;1.50;1.00;;;18.20;98.20;;;;;;5006448;28;20490;-80
2022/06/25 03:09:16;;;;;;;1.50;0.90;;;18.20;98.20;;;;;;5020578;28;20498;-80
2022/06/25 03:11:43;;;;;;;1.50;0.90;;;18.20;98.20;;;;;;5006405;28;20480;-81
2022/06/25 03:14:10;;;;;;;1.50;0.90;;;18.20;98.20;;;;;;5009094;28;20555;-81
2022/06/25 03:16:38;;;;;;;1.50;1.00;;;18.20;98.20;;;;;;5003631;28;20492;-80
2022/06/25 03:19:05;;;;;;;1.50;0.90;;;18.30;98.20;;;;;;5018965;28;20520;-80
2022/06/25 03:21:32;;;;;;;1.50;0.90;;;18.30;98.20;;;;;;5005800;28;20511;-80
2022/06/25 03:23:59;;;;;;;1.50;0.90;;;18.30;98.20;;;;;;5016833;28;20457;-80
2022/06/25 03:26:26;;;;;;;1.50;0.90;;;18.30;98.20;;;;;;5013013;28;20486;-81
2022/06/25 03:28:53;;;;;;;1.50;0.90;;;18.30;98.20;;;;;;5036300;28;20528;-80
2022/06/25 03:31:21;;;;;;;1.50;0.90;;;18.30;98.20;;;;;;5023377;28;20488;-81
2022/06/25 03:33:49;;;;;;;1.50;0.90;;;18.30;98.20;;;;;;5012932;28;20490;-81
2022/06/25 03:39:43;;;;;;;1.50;0.90;;;18.30;98.20;;;;;;4987674;28;20496;-81
2022/06/25 03:42:10;;;;;;;1.50;0.90;;;18.30;98.20;;;;;;5012002;28;20725;-79
2022/06/25 03:44:36;;;;;;;1.50;0.90;;;18.20;98.20;;;;;;5017574;28;20536;-81
2022/06/25 03:47:04;;;;;;;1.50;0.90;;;18.20;98.20;;;;;;5013549;28;20460;-81
2022/06/25 03:49:32;;;;;;;1.50;0.90;;;18.20;98.20;;;;;;5028348;28;20460;-81
2022/06/25 03:51:59;;;;;;;1.50;0.90;;;18.20;98.20;;;;;;5016240;28;20535;-80
2022/06/25 03:54:26;;;;;;;1.50;1.00;;;18.20;98.20;;;;;;5015497;28;20473;-80
2022/06/25 03:56:55;;;;;;;1.50;0.90;;;18.20;98.20;;;;;;5017112;28;20533;-81
2022/06/25 03:59:22;;;;;;;1.50;0.97;;;18.20;98.20;;;;;;5018274;28;20456;-80
2022/06/25 04:01:50;;;;;;;1.50;0.90;;;18.30;98.20;;;;;;5014696;28;20482;-82
2022/06/25 04:04:17;;;;;;;1.50;0.90;;;18.20;98.20;;;;;;5038714;28;20512;-82
2022/06/25 04:06:45;;;;;;;1.50;0.90;;;18.30;98.20;;;;;;5026962;28;20496;-81
2022/06/25 04:09:12;;;;;;;1.50;0.90;;;18.30;98.20;;;;;;5027446;28;20500;-82
2022/06/25 04:11:39;;;;;;;1.50;0.90;;;18.30;98.20;;;;;;5009833;28;20484;-80
2022/06/25 04:14:07;;;;;;;1.50;0.90;;;18.30;98.20;;;;;;5013249;28;20539;-81
2022/06/25 04:16:34;;;;;;;1.63;1.37;;;18.30;98.20;;;;;;5010204;28;20484;-81
2022/06/25 04:19:03;;;;;;;1.50;0.90;;;18.30;98.20;;;;;;5014076;28;20485;-80
2022/06/25 04:24:44;;;;;;;1.50;1.00;;;18.40;98.20;;;;;;4922707;28;20515;-80
2022/06/25 04:31:05;;;;;;;1.50;0.90;;;18.40;98.20;;;;;;4957781;29;20510;-82
2022/06/25 04:36:19;;;;;;;1.50;1.00;;;18.30;98.20;;;;;;5027830;23;20550;-80
2022/06/25 04:38:46;;;;;;;1.50;0.90;;;18.40;98.20;;;;;;5012474;28;20457;-82
2022/06/25 04:41:16;;;;;;;1.50;1.00;;;18.40;98.20;;;;;;5004234;28;20504;-82
2022/06/25 04:43:43;;;;;;;1.50;0.90;;;18.50;98.20;;;;;;5006366;28;20500;-81
2022/06/25 04:46:10;;;;;;;1.50;0.90;;;18.70;98.20;;;;;;5001830;28;20514;-81
2022/06/25 04:48:40;;;;;;;1.50;0.90;;;18.80;98.20;;;;;;5010974;28;20508;-82
2022/06/25 04:51:09;;;;;;;1.50;0.90;;;18.90;98.20;;;;;;5007535;28;20477;-81
2022/06/25 04:53:55;;;;;;;1.50;0.90;;;19.00;98.20;;;;;;5009319;28;20468;-81
2022/06/25 04:56:30;;;;;;;1.50;0.90;;;19.20;98.20;;;;;;5008590;28;20457;-80
2022/06/25 04:58:58;;;;;;;1.50;0.90;;;19.50;98.20;;;;;;5006891;28;20488;-81
2022/06/25 05:01:26;;;;;;;1.60;1.00;;;19.60;98.20;;;;;;4998602;28;20557;-80
2022/06/25 05:03:53;;;;;;;1.50;0.97;;;19.80;98.20;;;;;;5010929;28;20519;-80
2022/06/25 05:06:20;;;;;;;2.33;1.97;;;20.00;98.20;;;;;;5000880;28;20465;-81
2022/06/25 05:08:47;;;;;;;1.50;0.90;;;20.00;98.20;;;;;;5003584;28;20457;-77
2022/06/25 05:11:15;;;;;;;1.50;0.90;;;20.10;98.20;;;;;;4994815;28;20737;-80
2022/06/25 05:13:45;;;;;;;1.50;1.00;;;20.10;98.20;;;;;;5009589;28;20485;-81
2022/06/25 05:16:12;;;;;;;1.53;0.90;;;20.30;98.20;;;;;;5004248;28;20547;-80
2022/06/25 05:18:39;;;;;;;1.50;1.00;;;20.40;98.20;;;;;;5004182;28;20461;-81
2022/06/25 05:21:07;;;;;;;1.53;0.90;;;20.60;98.20;;;;;;5001320;28;20458;-81
2022/06/25 05:23:45;;;;;;;1.50;1.00;;;20.80;98.20;;;;;;5007987;28;20454;-82
2022/06/25 05:26:12;;;;;;;1.53;0.90;;;20.80;98.20;;;;;;4991591;28;20488;-81
2022/06/25 05:28:45;;;;;;;1.50;0.90;;;20.90;98.20;;;;;;5008576;28;20464;-81
2022/06/25 05:31:14;;;;;;;1.53;0.90;;;21.10;98.20;;;;;;4985665;28;20598;-81
2022/06/25 05:33:43;;;;;;;1.50;0.90;;;21.10;98.20;;;;;;4996200;28;20627;-81
2022/06/25 05:36:18;;;;;;;1.50;0.90;;;21.10;98.20;;;;;;5001168;28;20516;-82
2022/06/25 05:38:46;;;;;;;1.50;0.90;;;21.10;98.20;;;;;;4996429;28;20467;-81
2022/06/25 05:41:13;;;;;;;1.50;0.90;;;21.10;98.20;;;;;;4989761;28;20679;-80
2022/06/25 05:43:41;;;;;;;1.60;1.20;;;21.30;98.20;;;;;;5008471;28;20471;-80
2022/06/25 05:46:09;;;;;;;1.50;0.90;;;21.60;98.20;;;;;;4992803;28;20496;-80
2022/06/25 05:48:36;;;;;;;1.50;0.90;;;21.80;98.20;;;;;;5008350;28;20730;-81
2022/06/25 05:51:04;;;;;;;1.50;0.90;;;21.80;98.20;;;;;;4995671;28;20465;-80
2022/06/25 05:53:44;;;;;;;1.50;0.90;;;22.00;98.20;;;;;;4997539;28;20457;-81
2022/06/25 05:56:11;;;;;;;1.50;0.90;;;22.10;98.20;;;;;;4997928;28;20481;-80
2022/06/25 05:58:38;;;;;;;1.50;0.90;;;22.10;98.20;;;;;;5000009;28;20524;-81
2022/06/25 06:01:05;;;;;;;1.50;0.90;;;22.30;98.20;;;;;;4992492;28;20469;-81
2022/06/25 06:03:33;;;;;;;1.50;0.90;;;22.30;98.20;;;;;;4995591;28;20618;-81
2022/06/25 06:06:00;;;;;;;1.50;0.90;;;22.40;98.20;;;;;;4992900;28;20488;-81
2022/06/25 06:08:26;;;;;;;1.50;0.90;;;22.50;98.20;;;;;;5009381;28;20565;-81
2022/06/25 06:10:53;;;;;;;1.53;0.90;;;22.60;98.20;;;;;;5002951;28;20553;-83
2022/06/25 06:13:20;;;;;;;1.50;0.90;;;22.80;98.20;;;;;;5003234;28;20536;-79
2022/06/25 06:15:50;;;;;;;1.50;0.90;;;22.90;97.70;;;;;;5002563;28;20515;-79
2022/06/25 06:18:17;;;;;;;1.50;0.90;;;22.90;96.80;;;;;;5004167;28;20500;-79
2022/06/25 06:20:46;;;;;;;1.50;0.90;;;23.00;97.40;;;;;;5002374;28;20480;-79
2022/06/25 06:23:18;;;;;;;1.50;0.90;;;23.10;97.20;;;;;;4989725;28;20752;-79
2022/06/25 06:25:45;;;;;;;1.50;0.90;;;23.20;95.80;;;;;;4997366;28;20477;-81
2022/06/25 06:28:12;;;;;;;1.50;0.90;;;23.20;95.60;;;;;;5006365;28;20496;-79
2022/06/25 06:30:39;;;;;;;1.50;0.90;;;23.20;96.00;;;;;;5013801;28;20594;-78
2022/06/25 06:33:06;;;;;;;1.60;1.20;;;23.20;95.40;;;;;;5015934;28;20494;-80
2022/06/25 06:35:33;;;;;;;1.50;0.90;;;23.30;94.70;;;;;;5013869;28;20504;-80
2022/06/25 06:38:16;;;;;;;1.50;0.90;;;23.50;95.30;;;;;;5017517;28;20492;-80
2022/06/25 06:40:43;;;;;;;1.50;0.90;;;23.80;93.00;;;;;;5014998;28;20543;-79
2022/06/25 06:43:10;;;;;;;1.50;0.90;;;24.10;92.20;;;;;;5012426;28;20476;-78
2022/06/25 06:45:37;;;;;;;1.50;0.80;;;24.40;91.90;;;;;;5013822;28;20484;-78
2022/06/25 06:48:05;;;;;;;1.50;0.90;;;24.70;91.70;;;;;;5004321;28;20893;-79
2022/06/25 06:50:31;;;;;;;1.50;0.90;;;24.80;89.60;;;;;;5011723;28;20464;-79
2022/06/25 06:52:58;;;;;;;1.50;0.90;;;24.80;90.10;;;;;;5018492;28;20491;-80
2022/06/25 06:55:27;;;;;;;1.50;0.90;;;24.90;90.20;;;;;;5019043;28;20487;-80
2022/06/25 06:57:54;;;;;;;1.50;0.90;;;25.00;88.90;;;;;;5019272;28;20998;-81
2022/06/25 07:00:21;;;;;;;1.50;0.80;;;25.10;88.50;;;;;;5023634;28;20927;-80
2022/06/25 07:02:48;;;;;;;1.50;0.90;;;25.40;88.50;;;;;;5008383;28;20861;-79
2022/06/25 07:05:15;;;;;;;1.50;0.90;;;25.70;87.50;;;;;;5017615;28;20510;-79
2022/06/25 07:07:42;;;;;;;1.50;0.90;;;25.90;85.70;;;;;;4998761;28;21017;-80
2022/06/25 07:10:10;;;;;;;1.50;0.87;;;26.10;86.20;;;;;;5013366;28;20589;-79
2022/06/25 07:12:38;;;;;;;1.50;0.90;;;26.30;85.00;;;;;;5010738;28;21087;-79
2022/06/25 07:15:11;;;;;;;1.50;0.90;;;26.50;85.30;;;;;;5011406;28;20586;-79
2022/06/25 07:17:38;;;;;;;1.50;0.90;;;26.70;84.00;;;;;;5005017;28;20602;-79
2022/06/25 07:20:06;;;;;;;1.50;0.90;;;26.80;83.10;;;;;;5008027;28;20511;-78
2022/06/25 07:22:48;;;;;;;1.50;0.90;;;27.00;82.70;;;;;;4998916;28;20480;-79
2022/06/25 07:25:14;;;;;;;1.50;0.90;;;27.00;82.40;;;;;;5009756;28;20518;-79
2022/06/25 07:27:44;;;;;;;1.50;0.80;;;27.20;82.50;;;;;;5013226;28;20468;-80
2022/06/25 07:30:12;;;;;;;1.50;0.80;;;27.40;81.80;;;;;;5013029;28;20490;-79
2022/06/25 07:32:39;;;;;;;1.50;0.87;;;27.60;81.00;;;;;;5006051;28;20666;-80
2022/06/25 07:35:07;;;;;;;1.50;0.80;;;27.60;81.20;;;;;;5015047;28;20488;-79
2022/06/25 07:38:01;;;;;;;1.50;0.80;;;27.40;80.90;;;;;;5015120;28;20476;-81
2022/06/25 07:40:28;;;;;;;1.50;0.90;;;27.50;81.00;;;;;;5007980;28;21286;-80
2022/06/25 07:42:56;;;;;;;1.50;0.80;;;27.80;81.10;;;;;;5011008;28;21020;-80
2022/06/25 07:45:23;;;;;;;1.50;0.90;;;27.80;79.60;;;;;;5009670;28;20501;-80
2022/06/25 07:47:51;;;;;;;1.50;0.80;;;27.70;80.80;;;;;;5009778;28;20506;-81
2022/06/25 07:53:03;;;;;;;1.47;0.80;;;27.70;78.10;;;;;;5003593;28;20648;-80
2022/06/25 07:55:30;;;;;;;1.90;1.10;;;27.60;80.80;;;;;;5007400;28;20563;-80
2022/06/25 07:57:58;;;;;;;1.47;0.80;;;27.80;80.30;;;;;;5010465;28;20474;-80
2022/06/25 08:00:25;;;;;;;1.47;0.80;;;28.00;80.40;;;;;;5010394;28;20863;-81
2022/06/25 08:02:52;;;;;;;1.50;0.80;;;28.30;80.50;;;;;;5015163;28;20561;-79
2022/06/25 08:05:19;;;;;;;1.47;0.80;;;28.60;78.00;;;;;;5009997;28;20487;-80
2022/06/25 08:07:48;;;;;;;1.47;0.80;;;28.20;77.00;;;;;;5010640;28;20560;-80
2022/06/25 08:10:15;;;;;;;1.50;0.90;;;27.80;78.80;;;;;;5010970;28;20471;-81
2022/06/25 08:12:42;;;;;;;1.60;1.27;;;27.90;79.80;;;;;;5012539;28;20482;-81
2022/06/25 08:15:12;;;;;;;1.50;0.80;;;28.20;79.60;;;;;;5004606;28;20494;-80
2022/06/25 08:17:39;;;;;;;1.90;1.53;;;28.10;77.50;;;;;;5011249;28;20533;-81
2022/06/25 08:20:07;;;;;;;1.50;0.87;;;28.00;78.10;;;;;;5011828;28;20988;-81
2022/06/25 08:22:59;;;;;;;1.40;0.80;;;27.70;80.10;;;;;;5014327;28;20485;-81
2022/06/25 08:25:44;;;;;;;1.50;0.90;;;27.50;79.80;;;;;;5009843;28;20502;-81
2022/06/25 08:28:11;;;;;;;1.50;0.90;;;27.40;80.60;;;;;;5011533;28;20543;-81
2022/06/25 08:30:42;;;;;;;1.50;0.80;;;27.70;81.90;;;;;;5009593;28;20502;-81
2022/06/25 08:33:09;;;;;;;1.50;0.80;;;27.90;79.30;;;;;;4998527;28;20567;-81
2022/06/25 08:35:36;;;;;;;1.50;0.80;;;27.90;80.70;;;;;;5007226;28;20567;-81
2022/06/25 08:38:06;;;;;;;1.50;0.80;;;27.80;79.90;;;;;;5016321;28;20557;-81
2022/06/25 08:40:33;;;;;;;1.43;0.80;;;27.70;80.10;;;;;;5009051;28;20487;-80
2022/06/25 08:43:02;;;;;;;1.47;0.90;;;27.90;80.20;;;;;;5004145;28;20483;-82
2022/06/25 08:45:29;;;;;;;1.50;1.10;;;28.00;79.20;;;;;;5008416;28;20483;-82
2022/06/25 08:48:01;;;;;;;1.50;0.80;;;28.10;78.40;;;;;;5008720;28;20523;-80
2022/06/25 08:50:29;;;;;;;1.50;0.90;;;28.40;78.30;;;;;;5011096;28;20477;-81
2022/06/25 08:52:57;;;;;;;1.50;0.80;;;28.80;79.70;;;;;;5010052;28;20483;-81
2022/06/25 08:55:32;;;;;;;1.40;0.80;;;29.00;77.50;;;;;;5012050;28;20475;-80
2022/06/25 08:58:01;;;;;;;1.50;0.80;;;29.10;75.30;;;;;;5015528;28;20488;-80
2022/06/25 09:00:29;;;;;;;1.43;0.80;;;29.20;70.90;;;;;;5012139;28;20468;-80
2022/06/25 09:02:58;;;;;;;1.47;0.80;;;29.10;70.00;;;;;;5016622;28;20593;-81
2022/06/25 09:05:27;;;;;;;1.50;0.80;;;29.10;69.50;;;;;;5010002;28;20488;-80
2022/06/25 09:07:55;;;;;;;1.47;0.80;;;29.20;70.30;;;;;;5007418;28;21046;-80
2022/06/25 09:10:24;;;;;;;1.50;1.00;;;29.20;69.40;;;;;;5010817;28;20951;-80
2022/06/25 09:12:52;;;;;;;1.47;0.80;;;29.10;69.60;;;;;;5008899;28;20895;-80
2022/06/25 09:15:21;;;;;;;1.50;1.00;;;28.90;70.50;;;;;;5010562;28;20479;-81
2022/06/25 09:17:50;;;;;;;1.43;0.80;;;28.80;71.30;;;;;;5010911;28;20517;-80
2022/06/25 09:26:58;;;;;;;1.47;0.80;;;29.40;70.30;;;;;;4996397;28;20573;-81
2022/06/25 09:29:37;;;;;;;1.60;1.00;;;29.70;67.60;;;;;;5016116;28;20471;-81
2022/06/25 09:32:06;;;;;;;1.43;0.80;;;30.00;68.60;;;;;;5010372;28;20549;-81
2022/06/25 09:38:02;;;;;;;1.47;0.80;;;30.70;66.40;;;;;;5019951;28;20431;-80
2022/06/25 09:40:32;;;;;;;1.43;0.80;;;30.80;65.60;;;;;;5014441;28;20547;-79
2022/06/25 09:43:19;;;;;;;1.43;0.80;;;30.30;65.70;;;;;;5012438;28;20464;-83
2022/06/25 09:46:00;;;;;;;1.47;0.80;;;30.40;66.70;;;;;;5008976;28;20582;-82
2022/06/25 09:48:38;;;;;;;1.47;0.80;;;29.90;66.10;;;;;;5026728;28;20539;-80
2022/06/25 09:51:15;;;;;;;1.47;0.80;;;30.10;68.00;;;;;;5007783;28;20470;-80
2022/06/25 09:53:50;;;;;;;1.47;0.80;;;30.40;67.00;;;;;;5023754;28;20817;-80
2022/06/25 09:56:24;;;;;;;1.47;0.80;;;30.50;65.60;;;;;;5006210;28;20490;-81
2022/06/25 09:58:54;;;;;;;1.43;0.80;;;30.40;67.30;;;;;;5023250;28;20800;-80
2022/06/25 10:01:24;;;;;;;1.43;0.80;;;30.30;67.00;;;;;;5002317;28;20497;-80
2022/06/25 10:04:11;;;;;;;1.47;0.80;;;30.40;66.20;;;;;;5014247;28;20490;-81
2022/06/25 10:06:43;;;;;;;3.10;1.43;;;30.50;66.50;;;;;;5010741;28;20564;-82
2022/06/25 10:09:12;;;;;;;1.50;0.90;;;30.60;66.10;;;;;;5021248;28;20476;-81
2022/06/25 10:11:41;;;;;;;1.40;0.80;;;30.40;65.40;;;;;;5014417;28;20467;-81
2022/06/25 10:14:28;;;;;;;1.43;0.80;;;30.20;66.00;;;;;;5015139;28;20563;-81
2022/06/25 10:16:59;;;;;;;1.47;0.80;;;30.10;67.20;;;;;;5015337;28;20555;-81
2022/06/25 10:19:33;;;;;;;1.50;0.97;;;29.50;67.90;;;;;;5014909;28;20503;-81
2022/06/25 10:25:41;;;;;;;1.40;0.80;;;29.20;68.30;;;;;;4952513;28;20522;-79
2022/06/25 10:28:13;;;;;;;1.47;0.80;;;29.10;69.40;;;;;;4941449;28;20525;-80
2022/06/25 10:30:56;;;;;;;1.40;0.80;;;29.00;69.10;;;;;;4950933;28;20466;-80
2022/06/25 10:33:31;;;;;;;1.47;0.80;;;28.80;70.00;;;;;;4972773;28;20496;-81
2022/06/25 10:36:01;;;;;;;1.40;0.80;;;28.80;69.30;;;;;;5011507;28;21063;-82
2022/06/25 10:38:28;;;;;;;1.43;0.80;;;28.80;69.60;;;;;;5009953;28;20467;-79
2022/06/25 10:40:58;;;;;;;1.47;0.80;;;29.00;69.10;;;;;;5000645;28;20495;-80
2022/06/25 10:43:53;;;;;;;1.47;0.80;;;29.50;69.70;;;;;;5016682;28;20459;-81
2022/06/25 10:46:34;;;;;;;1.43;0.80;;;30.10;68.90;;;;;;5011165;28;20530;-81
2022/06/25 10:49:07;;;;;;;1.47;0.80;;;30.40;65.20;;;;;;5017282;28;20466;-82
2022/06/25 10:51:43;;;;;;;1.47;0.80;;;30.30;67.00;;;;;;5014205;28;20552;-82
2022/06/25 10:54:38;;;;;;;1.43;0.80;;;30.70;66.80;;;;;;5020523;28;20499;-81
2022/06/25 10:57:08;;;;;;;1.43;0.80;;;30.80;65.10;;;;;;5006397;28;20517;-82
2022/06/25 10:59:46;;;;;;;1.50;0.80;;;31.20;65.40;;;;;;5022965;28;20539;-83
2022/06/25 11:02:16;;;;;;;1.43;0.80;;;31.40;63.20;;;;;;5018280;28;20483;-83
2022/06/25 11:04:50;;;;;;;1.43;0.90;;;31.60;63.30;;;;;;5020579;28;20479;-82
2022/06/25 11:07:18;;;;;;;1.43;0.80;;;31.50;64.20;;;;;;5018857;28;20486;-83
2022/06/25 11:09:56;;;;;;;1.43;0.80;;;31.20;63.70;;;;;;5014930;28;20495;-83
2022/06/25 11:12:23;;;;;;;1.50;0.80;;;30.40;64.10;;;;;;5016178;28;20463;-81
2022/06/25 11:14:51;;;;;;;1.50;0.80;;;30.00;65.40;;;;;;5016168;28;20523;-82
2022/06/25 11:17:27;;;;;;;1.50;1.00;;;29.90;66.20;;;;;;5018803;28;20471;-80
2022/06/25 11:19:54;;;;;;;1.50;0.80;;;29.70;66.40;;;;;;5017877;28;20479;-82
2022/06/25 11:22:21;;;;;;;1.43;0.80;;;29.30;67.10;;;;;;5010991;28;20487;-81
2022/06/25 11:30:44;;;;;;;1.43;0.80;;;28.60;68.30;;;;;;5015372;28;20435;-82
2022/06/25 11:33:12;;;;;;;1.47;0.80;;;28.70;67.90;;;;;;5012328;28;20542;-78
2022/06/25 11:35:40;;;;;;;1.47;0.80;;;28.80;68.90;;;;;;5013635;28;20533;-79
2022/06/25 11:38:15;;;;;;;1.50;0.90;;;28.90;69.20;;;;;;5016836;28;20471;-80
2022/06/25 11:40:42;;;;;;;1.43;0.80;;;29.10;67.80;;;;;;5017158;28;20471;-79
2022/06/25 11:43:09;;;;;;;1.47;0.90;;;29.40;68.00;;;;;;5024433;28;20563;-81
2022/06/25 11:45:51;;;;;;;1.47;0.80;;;29.70;67.70;;;;;;5021908;28;20526;-81
2022/06/25 11:48:27;;;;;;;1.47;0.80;;;30.00;67.10;;;;;;5021566;28;21022;-81
2022/06/25 11:51:04;;;;;;;1.50;0.80;;;30.00;66.40;;;;;;5008650;28;20463;-81
2022/06/25 11:53:33;;;;;;;1.43;0.80;;;30.00;66.60;;;;;;5033479;28;20558;-80
2022/06/25 11:56:02;;;;;;;1.50;0.80;;;29.90;65.90;;;;;;5016725;28;21154;-80
2022/06/25 11:58:35;;;;;;;1.43;0.80;;;29.90;67.10;;;;;;5022400;28;20857;-81
2022/06/25 12:01:09;;;;;;;1.40;0.80;;;29.80;68.30;;;;;;5012501;28;20475;-82
2022/06/25 12:03:37;;;;;;;1.40;0.80;;;29.70;67.30;;;;;;5020029;28;20476;-82
2022/06/25 12:06:06;;;;;;;1.47;0.80;;;29.70;66.40;;;;;;5011271;28;20550;-82
2022/06/25 12:08:34;;;;;;;1.43;0.80;;;29.60;66.90;;;;;;5015553;28;20541;-80
2022/06/25 12:11:07;;;;;;;1.43;0.80;;;29.60;68.30;;;;;;5008070;28;21034;-81
2022/06/25 12:13:38;;;;;;;1.47;0.87;;;29.50;66.60;;;;;;5028892;28;20871;-80
2022/06/25 12:16:10;;;;;;;1.50;0.80;;;29.40;67.10;;;;;;5006793;28;20471;-81
2022/06/25 12:18:40;;;;;;;1.43;0.80;;;29.40;67.20;;;;;;5017994;28;20935;-81
2022/06/25 12:21:16;;;;;;;1.47;0.80;;;29.30;68.30;;;;;;5009934;28;20895;-81
2022/06/25 12:23:50;;;;;;;1.47;0.80;;;29.40;68.20;;;;;;5014469;28;20464;-79
2022/06/25 12:27:02;;;;;;;1.50;0.90;;;29.50;66.90;;;;;;5014541;28;20574;-79
2022/06/25 12:36:37;;;;;;;1.43;0.80;;;29.20;67.40;;;;;;5038327;23;21176;-79
2022/06/25 12:39:20;;;;;;;1.43;0.80;;;29.20;67.50;;;;;;5012535;28;20463;-79
2022/06/25 12:41:48;;;;;;;1.50;0.80;;;29.10;68.00;;;;;;5011741;28;21165;-79
2022/06/25 12:44:19;;;;;;;1.43;0.90;;;29.00;68.10;;;;;;5012144;28;20504;-79
2022/06/25 12:47:00;;;;;;;1.50;0.90;;;29.00;68.50;;;;;;4990752;28;20476;-78
2022/06/25 12:49:51;;;;;;;1.40;0.80;;;29.00;69.60;;;;;;4988393;28;20495;-78
2022/06/25 12:52:21;;;;;;;1.47;0.80;;;29.00;69.00;;;;;;4989964;28;20468;-79
2022/06/25 12:54:53;;;;;;;1.43;0.80;;;29.10;68.50;;;;;;4989749;28;20587;-79
2022/06/25 12:57:33;;;;;;;1.47;0.80;;;29.20;69.50;;;;;;4991011;28;20561;-79
2022/06/25 13:00:18;;;;;;;1.43;0.80;;;29.30;68.80;;;;;;4995911;28;20531;-79
2022/06/25 13:02:47;;;;;;;1.47;0.80;;;29.50;67.40;;;;;;4996273;28;20522;-80
2022/06/25 13:05:15;;;;;;;1.40;0.80;;;29.50;67.90;;;;;;4988809;28;20686;-80
2022/06/25 13:07:45;;;;;;;1.50;0.90;;;29.40;68.20;;;;;;4984841;28;20491;-80
2022/06/25 13:10:17;;;;;;;1.47;0.80;;;29.40;68.40;;;;;;4991938;28;20807;-81
2022/06/25 13:12:44;;;;;;;1.40;0.80;;;29.40;67.40;;;;;;4992087;28;20464;-80
2022/06/25 13:15:13;;;;;;;1.40;0.80;;;29.30;66.90;;;;;;4986940;28;20499;-81
2022/06/25 13:17:41;;;;;;;1.70;1.00;;;29.30;67.40;;;;;;4990518;28;20774;-82
2022/06/25 13:20:15;;;;;;;1.40;0.80;;;29.20;67.60;;;;;;4992897;28;20468;-81
2022/06/25 13:22:49;;;;;;;1.47;0.80;;;29.20;68.90;;;;;;4994806;28;20606;-79
2022/06/25 13:25:17;;;;;;;1.40;0.80;;;29.20;68.20;;;;;;4994643;28;20488;-80
2022/06/25 13:27:48;;;;;;;1.43;0.90;;;29.10;68.80;;;;;;4992373;28;20500;-81
2022/06/25 13:30:16;;;;;;;1.40;0.80;;;29.10;67.80;;;;;;4993965;28;20468;-81
2022/06/25 13:32:47;;;;;;;1.43;0.90;;;29.10;68.00;;;;;;4992739;28;20468;-79
2022/06/25 13:35:14;;;;;;;1.40;0.80;;;29.10;68.40;;;;;;4990008;28;20587;-79
2022/06/25 13:37:42;;;;;;;1.40;0.80;;;29.20;69.00;;;;;;4991181;28;20471;-79
2022/06/25 13:40:15;;;;;;;1.40;0.80;;;29.30;68.60;;;;;;4990037;28;21135;-79
2022/06/25 13:42:45;;;;;;;1.43;0.80;;;29.30;68.30;;;;;;4993183;28;20496;-80
2022/06/25 13:45:18;;;;;;;1.43;0.80;;;29.20;67.90;;;;;;4995385;28;20512;-80
2022/06/25 13:47:45;;;;;;;1.43;0.80;;;29.20;68.50;;;;;;4997380;28;20524;-79
2022/06/25 13:50:12;;;;;;;1.50;1.03;;;29.20;69.00;;;;;;4992000;28;20544;-80